Jump to content


SOUTHWEST AIRLINES FLIGHT WN4616 FLOWN ON 08-05-2017 BY CAPTAIN TYLER HANUS

Pilot StatsCaptain Tyler Hanus (LDP525) • 239.4 total hours • 51 total flights [View Logbook]
FLIGHT DETAILS
StatusReceived and approved on 2017-08-05 at 14:08:56
Origin AirportDenver Intl (KDEN) • Denver, Colorado, United States (5,430 feet MSL)
Filed Flight PlanFLIGHT PLANNER OFFLINE
Destination AirportMinneapolis-St Paul Intl (KMSP) • Minneapolis, Minnesota, United States (841 feet MSL)
Alternate AirportNone Filed
AirlineSouthwest Airlines
AircraftBoeing 737-800 | Winglets (73H / B737-800)
FS Aircraft UsedBoeing 737-8H4NGX Southwest Airlines (Warrior One) Winglets
Cruising AltitudeFL390
Distance Flown589 nautical miles
Passengers Onboard76 passengers (46.91% full)
DEPARTURE DETAILS
Time Out10:50:27
Taxi Data125,787 lbs total with 15,481 lbs of fuel onboard
Takeoff Data11:03:22 (13 minutes after leaving gate/ramp) • 125,180 lbs total • 9° pitch at 147 knots
Departure METARKDEN 051553Z VRB04KT 10SM FEW090 SCT140 BKN220 21/11 A3005 RMK AO2 SLP103 T02060106 $
ARRIVAL DETAILS
Landing Data13:33:17 • 116,970 lbs total • 4° pitch doing 128 knots at a rate of -145.33 feet/minute with 6,433 lbs of fuel onboard
Time In13:38:48 (6 minutes after landing)
Ramp Weight116,739 lbs total
Total Fuel Used9,048 lbs
Total Block Time01:47:42 (1.8 hours) while 18 minutes were spent on the ground
Arrival METARKMSP 051753Z VRB05KT 10SM FEW080 SCT180 25/12 A3000 RMK AO2 SLP156 T02500117 10250 20156 58003
MISCELLANEOUS DETAILS
LiveDISPATCH Version4.8.3.1
FS Version
FSUIPC Version4.96
OS VersionWindows 7 32-bit
Screen Resolution1360 x 768
Pilot's CommentsNo Comments Reported
FLIGHT MAP